createdAt,value
2018-10-06T00:01:00.225Z,15.73
2018-10-06T00:04:04.591Z,15.78
2018-10-06T00:07:07.517Z,15.82
2018-10-06T00:10:10.484Z,15.89
2018-10-06T00:13:13.409Z,15.81
2018-10-06T00:16:16.342Z,15.78
2018-10-06T00:19:19.242Z,15.69
2018-10-06T00:22:29.064Z,15.62
2018-10-06T00:25:32.010Z,15.64
2018-10-06T00:28:34.974Z,15.51
2018-10-06T00:31:37.913Z,15.40
2018-10-06T00:34:40.818Z,15.38
2018-10-06T00:37:43.753Z,15.43
2018-10-06T00:40:46.641Z,15.38
2018-10-06T00:43:49.907Z,15.33
2018-10-06T00:46:52.857Z,15.37
2018-10-06T00:49:55.804Z,15.40
2018-10-06T00:52:58.756Z,15.22
2018-10-06T00:56:01.688Z,15.26
2018-10-06T00:59:04.807Z,15.17
2018-10-06T01:02:07.734Z,15.11
2018-10-06T01:05:10.634Z,15.09
2018-10-06T01:08:13.581Z,15.09
2018-10-06T01:11:16.510Z,14.91
2018-10-06T01:14:19.463Z,14.99
2018-10-06T01:17:22.430Z,15.01
2018-10-06T01:20:25.392Z,14.93
2018-10-06T01:23:28.415Z,14.94
2018-10-06T01:26:31.398Z,14.98
2018-10-06T01:29:34.329Z,14.94
2018-10-06T01:32:37.263Z,14.98
2018-10-06T01:35:40.182Z,15.07
2018-10-06T01:38:43.761Z,14.82
2018-10-06T01:41:46.690Z,14.80
2018-10-06T01:44:49.616Z,14.81
2018-10-06T01:47:52.568Z,14.76
2018-10-06T01:50:55.543Z,14.68
2018-10-06T01:53:58.425Z,14.71
2018-10-06T01:57:01.474Z,14.79
2018-10-06T02:00:04.529Z,14.67
2018-10-06T02:03:07.414Z,14.76
2018-10-06T02:06:10.402Z,14.81
2018-10-06T02:09:13.319Z,14.71
2018-10-06T02:12:16.250Z,14.90
2018-10-06T02:15:19.094Z,14.95
2018-10-06T02:18:22.049Z,14.87
2018-10-06T02:21:25.048Z,14.93
2018-10-06T02:24:27.985Z,14.94
2018-10-06T02:27:30.933Z,14.94
2018-10-06T02:30:33.894Z,14.84
2018-10-06T02:33:36.810Z,14.90
2018-10-06T02:36:39.760Z,14.92
2018-10-06T02:39:42.666Z,14.96
2018-10-06T02:42:45.620Z,15.00
2018-10-06T02:45:48.626Z,14.94
2018-10-06T02:48:51.524Z,14.96
2018-10-06T02:51:54.437Z,14.86
2018-10-06T02:54:57.332Z,14.87
2018-10-06T02:58:00.304Z,14.79
2018-10-06T03:01:03.265Z,14.72
2018-10-06T03:04:06.239Z,14.94
2018-10-06T03:07:09.268Z,14.84
2018-10-06T03:10:12.154Z,14.67
2018-10-06T03:13:15.061Z,14.71
2018-10-06T03:16:17.988Z,14.63
2018-10-06T03:19:20.850Z,14.75
2018-10-06T03:22:23.773Z,14.72
2018-10-06T03:25:26.688Z,14.78
2018-10-06T03:28:29.669Z,14.81
2018-10-06T03:31:32.578Z,14.70
2018-10-06T03:34:35.553Z,14.71
2018-10-06T03:37:38.514Z,14.85
2018-10-06T03:40:41.550Z,14.78
2018-10-06T03:43:44.481Z,14.75
2018-10-06T03:46:47.453Z,14.65
2018-10-06T03:49:50.428Z,14.70
2018-10-06T03:52:53.422Z,14.63
2018-10-06T03:55:56.367Z,14.48
2018-10-06T03:58:59.314Z,14.44
2018-10-06T04:02:02.217Z,14.42
2018-10-06T04:05:05.249Z,14.48
2018-10-06T04:08:08.232Z,14.58
2018-10-06T04:11:11.165Z,14.52
2018-10-06T04:14:14.074Z,14.42
2018-10-06T04:17:17.009Z,14.36
2018-10-06T04:20:19.895Z,14.46
2018-10-06T04:23:22.841Z,14.60
2018-10-06T04:26:25.853Z,14.68
2018-10-06T04:29:28.765Z,14.66
2018-10-06T04:32:31.665Z,14.54
2018-10-06T04:35:34.623Z,14.49
2018-10-06T04:38:37.537Z,14.53
2018-10-06T04:41:40.482Z,14.55
2018-10-06T04:44:43.512Z,14.47
2018-10-06T04:47:46.437Z,14.27
2018-10-06T04:50:49.302Z,14.18
2018-10-06T04:53:52.220Z,14.31
2018-10-06T04:56:55.169Z,14.13
2018-10-06T04:59:58.089Z,14.09
2018-10-06T05:03:00.965Z,14.20
2018-10-06T05:06:03.918Z,14.14
2018-10-06T05:09:07.909Z,14.01
2018-10-06T05:12:10.831Z,14.25
2018-10-06T05:15:13.790Z,14.31
2018-10-06T05:18:16.722Z,14.17
2018-10-06T05:21:19.613Z,14.23
2018-10-06T05:24:22.521Z,14.34
2018-10-06T05:27:25.491Z,14.31
2018-10-06T05:30:28.480Z,14.20
2018-10-06T05:33:31.482Z,14.14
2018-10-06T05:36:34.425Z,14.19
2018-10-06T05:39:37.358Z,14.11
2018-10-06T05:42:40.433Z,14.04
2018-10-06T05:45:43.361Z,13.96
2018-10-06T05:48:46.273Z,14.10
2018-10-06T05:51:49.218Z,14.12
2018-10-06T05:54:52.282Z,14.26
2018-10-06T05:57:55.610Z,14.15
2018-10-06T06:00:58.593Z,14.22
2018-10-06T06:04:01.598Z,14.23
2018-10-06T06:07:04.597Z,14.25
2018-10-06T06:10:07.818Z,14.21
2018-10-06T06:13:10.737Z,14.24
2018-10-06T06:16:13.673Z,14.10
2018-10-06T06:19:16.673Z,14.01
2018-10-06T06:22:19.659Z,14.11
2018-10-06T06:25:22.625Z,14.04
2018-10-06T06:28:25.547Z,13.90
2018-10-06T06:31:28.549Z,14.00
2018-10-06T06:34:31.577Z,14.02
2018-10-06T06:37:34.522Z,13.97
2018-10-06T06:40:37.440Z,14.03
2018-10-06T06:43:40.414Z,14.16
2018-10-06T06:46:43.380Z,14.03
2018-10-06T06:49:46.325Z,14.22
2018-10-06T06:52:49.265Z,14.09
2018-10-06T06:55:52.205Z,14.13
2018-10-06T06:58:55.855Z,14.22
2018-10-06T07:01:58.819Z,14.22
2018-10-06T07:05:01.746Z,14.44
2018-10-06T07:08:04.796Z,14.48
2018-10-06T07:11:07.755Z,14.43
2018-10-06T07:14:10.737Z,14.55
2018-10-06T07:17:13.680Z,14.59
2018-10-06T07:20:16.622Z,14.62
2018-10-06T07:23:19.561Z,14.55
2018-10-06T07:26:22.532Z,14.66
2018-10-06T07:29:25.534Z,14.76
2018-10-06T07:32:35.048Z,14.82
2018-10-06T07:35:37.998Z,14.90
2018-10-06T07:38:40.897Z,14.96
2018-10-06T07:41:43.783Z,14.97
2018-10-06T07:44:48.541Z,15.03
2018-10-06T07:47:51.429Z,15.13
2018-10-06T07:50:54.372Z,15.20
2018-10-06T07:53:57.245Z,15.21
2018-10-06T07:57:00.211Z,15.22
2018-10-06T08:00:03.185Z,15.39
2018-10-06T08:03:06.293Z,15.47
2018-10-06T08:06:09.269Z,15.56
2018-10-06T08:09:12.180Z,15.64
2018-10-06T08:12:15.134Z,15.76
2018-10-06T08:15:18.122Z,15.84
2018-10-06T08:18:21.110Z,15.98
2018-10-06T08:21:24.057Z,16.12
2018-10-06T08:24:26.982Z,16.18
2018-10-06T08:27:29.862Z,16.23
2018-10-06T08:30:32.928Z,16.28
2018-10-06T08:33:35.956Z,16.34
2018-10-06T08:36:38.921Z,16.38
2018-10-06T08:39:41.825Z,16.53
2018-10-06T08:42:44.879Z,16.72
2018-10-06T08:45:47.743Z,16.63
2018-10-06T08:48:50.679Z,16.64
2018-10-06T08:51:53.587Z,16.73
2018-10-06T08:54:56.513Z,16.65
2018-10-06T08:57:59.480Z,16.86
2018-10-06T09:01:02.397Z,16.91
2018-10-06T09:04:05.748Z,16.89
2018-10-06T09:07:08.701Z,17.02
2018-10-06T09:10:12.169Z,17.15
2018-10-06T09:13:15.074Z,17.03
2018-10-06T09:16:18.027Z,17.17
2018-10-06T09:19:20.975Z,17.21
2018-10-06T09:22:23.892Z,17.58
2018-10-06T09:25:26.836Z,17.40
2018-10-06T09:28:29.749Z,17.55
2018-10-06T09:31:32.750Z,17.25
2018-10-06T09:34:35.726Z,17.36
2018-10-06T09:37:38.684Z,17.65
2018-10-06T09:40:41.592Z,17.48
2018-10-06T09:43:44.697Z,17.74
2018-10-06T09:46:47.592Z,17.88
2018-10-06T09:49:50.503Z,18.17
2018-10-06T09:52:53.457Z,18.24
2018-10-06T09:55:56.374Z,18.16
2018-10-06T09:58:59.284Z,18.30
2018-10-06T10:02:08.034Z,18.32
2018-10-06T10:05:16.503Z,18.55
2018-10-06T10:08:19.396Z,18.56
2018-10-06T10:11:22.363Z,18.87
2018-10-06T10:14:25.318Z,19.04
2018-10-06T10:17:28.247Z,19.21
2018-10-06T10:20:31.127Z,19.18
2018-10-06T10:23:34.113Z,19.45
2018-10-06T10:26:37.070Z,19.44
2018-10-06T10:29:40.061Z,19.65
2018-10-06T10:32:42.978Z,19.76
2018-10-06T10:35:45.913Z,20.12
2018-10-06T10:38:48.991Z,20.66
2018-10-06T10:41:51.886Z,20.38
2018-10-06T10:44:54.820Z,20.50
2018-10-06T10:47:57.749Z,21.11
2018-10-06T10:51:00.678Z,20.56
2018-10-06T10:54:03.572Z,20.48
2018-10-06T10:57:06.598Z,20.36
2018-10-06T11:00:09.712Z,20.22
2018-10-06T11:03:12.592Z,20.89
2018-10-06T11:06:15.540Z,21.29
2018-10-06T11:09:18.445Z,21.04
2018-10-06T11:12:21.424Z,21.54
2018-10-06T11:15:24.398Z,20.88
2018-10-06T11:18:27.386Z,20.99
2018-10-06T11:21:30.346Z,20.71
2018-10-06T11:24:33.301Z,21.47
2018-10-06T11:27:36.237Z,21.32
2018-10-06T11:30:39.194Z,22.35
2018-10-06T11:33:42.126Z,21.75
2018-10-06T11:36:45.021Z,21.84
2018-10-06T11:39:47.953Z,22.10
2018-10-06T11:42:50.844Z,21.87
2018-10-06T11:45:53.762Z,22.24
2018-10-06T11:48:56.694Z,22.16
2018-10-06T11:51:59.606Z,22.56
2018-10-06T11:55:02.509Z,23.22
2018-10-06T11:58:05.443Z,22.23
2018-10-06T12:01:09.758Z,22.03
2018-10-06T12:04:12.756Z,22.28
2018-10-06T12:07:15.671Z,23.04
2018-10-06T12:10:18.604Z,22.73
2018-10-06T12:13:21.584Z,23.22
2018-10-06T12:16:24.529Z,23.06
2018-10-06T12:19:27.405Z,22.35
2018-10-06T12:22:30.349Z,21.90
2018-10-06T12:25:33.293Z,23.06
2018-10-06T12:28:36.241Z,23.38
2018-10-06T12:31:39.192Z,23.26
2018-10-06T12:34:42.174Z,23.32
2018-10-06T12:37:45.157Z,23.49
2018-10-06T12:40:48.070Z,23.44
2018-10-06T12:43:51.047Z,23.61
2018-10-06T12:46:54.154Z,23.88
2018-10-06T12:49:57.082Z,24.17
2018-10-06T12:53:00.033Z,23.77
2018-10-06T12:56:02.951Z,23.65
2018-10-06T12:59:06.105Z,23.68
2018-10-06T13:02:09.039Z,23.64
2018-10-06T13:05:11.955Z,23.79
2018-10-06T13:08:14.908Z,23.86
2018-10-06T13:11:17.842Z,23.79
2018-10-06T13:14:20.758Z,23.84
2018-10-06T13:17:23.673Z,24.00
2018-10-06T13:20:26.600Z,24.10
2018-10-06T13:23:29.525Z,23.63
2018-10-06T13:26:32.492Z,23.57
2018-10-06T13:29:35.497Z,23.34
2018-10-06T13:32:38.465Z,23.54
2018-10-06T13:35:41.405Z,23.59
2018-10-06T13:38:44.374Z,23.46
2018-10-06T13:41:47.365Z,22.98
2018-10-06T13:44:50.301Z,23.30
2018-10-06T13:47:53.549Z,22.74
2018-10-06T13:50:56.570Z,23.03
2018-10-06T13:53:59.829Z,22.67
2018-10-06T13:57:02.902Z,23.00
2018-10-06T14:00:05.945Z,23.24
2018-10-06T14:03:08.901Z,23.44
2018-10-06T14:06:11.849Z,23.42
2018-10-06T14:09:14.789Z,23.53
2018-10-06T14:12:17.717Z,23.67
2018-10-06T14:15:20.633Z,23.84
2018-10-06T14:18:23.596Z,23.71
2018-10-06T14:21:26.529Z,23.24
2018-10-06T14:24:29.423Z,23.47
2018-10-06T14:27:32.372Z,23.83
2018-10-06T14:30:35.329Z,23.59
2018-10-06T14:33:38.260Z,23.38
2018-10-06T14:36:41.267Z,23.56
2018-10-06T14:39:44.221Z,22.95
2018-10-06T14:42:47.226Z,23.61
2018-10-06T14:45:50.119Z,23.63
2018-10-06T14:48:53.045Z,23.43
2018-10-06T14:51:55.985Z,23.80
2018-10-06T14:54:58.927Z,23.14
2018-10-06T14:58:01.892Z,23.24
2018-10-06T15:01:04.989Z,22.96
2018-10-06T15:04:07.878Z,22.68
2018-10-06T15:07:10.828Z,22.58
2018-10-06T15:10:13.825Z,22.31
2018-10-06T15:13:16.708Z,21.92
2018-10-06T15:16:19.776Z,21.96
2018-10-06T15:19:22.780Z,22.00
2018-10-06T15:22:25.840Z,21.72
2018-10-06T15:25:28.780Z,21.61
2018-10-06T15:28:31.728Z,21.46
2018-10-06T15:31:34.699Z,21.43
2018-10-06T15:34:37.692Z,21.34
2018-10-06T15:37:40.727Z,21.21
2018-10-06T15:40:43.717Z,21.16
2018-10-06T15:43:46.720Z,21.07
2018-10-06T15:46:49.704Z,20.95
2018-10-06T15:49:52.632Z,20.85
2018-10-06T15:52:55.518Z,20.71
2018-10-06T15:55:58.808Z,20.65
2018-10-06T15:59:01.813Z,20.50
2018-10-06T16:02:04.844Z,20.35
2018-10-06T16:05:07.714Z,20.27
2018-10-06T16:08:10.613Z,20.17
2018-10-06T16:11:13.508Z,20.12
2018-10-06T16:14:16.458Z,20.01
2018-10-06T16:17:19.424Z,19.94
2018-10-06T16:20:25.443Z,19.92
2018-10-06T16:23:29.078Z,19.91
2018-10-06T16:26:32.591Z,19.87
2018-10-06T16:29:35.942Z,19.88
2018-10-06T16:32:38.924Z,19.81
2018-10-06T16:35:42.441Z,19.84
2018-10-06T16:38:45.344Z,19.82
2018-10-06T16:41:48.300Z,19.68
2018-10-06T16:44:51.310Z,19.58
2018-10-06T16:47:54.729Z,19.60
2018-10-06T16:50:58.198Z,19.65
2018-10-06T16:54:01.501Z,19.49
2018-10-06T16:57:04.521Z,19.40
2018-10-06T17:00:08.637Z,19.35
2018-10-06T17:03:12.038Z,19.44
2018-10-06T17:06:15.309Z,19.40
2018-10-06T17:09:18.780Z,19.33
2018-10-06T17:12:22.839Z,19.31
2018-10-06T17:15:25.736Z,19.02
2018-10-06T17:18:28.907Z,19.04
2018-10-06T17:21:32.022Z,19.00
2018-10-06T17:24:35.583Z,19.00
2018-10-06T17:27:39.092Z,18.93
2018-10-06T17:30:42.518Z,18.90
2018-10-06T17:33:45.649Z,18.91
2018-10-06T17:36:48.617Z,18.87
2018-10-06T17:39:51.983Z,18.87
2018-10-06T17:42:55.250Z,18.89
2018-10-06T17:45:58.801Z,18.81
2018-10-06T17:49:02.019Z,18.77
2018-10-06T17:52:04.963Z,18.79
2018-10-06T17:55:08.066Z,18.78
2018-10-06T17:58:11.381Z,18.73
2018-10-06T18:01:14.770Z,18.87
2018-10-06T18:04:17.960Z,18.71
2018-10-06T18:07:21.216Z,18.70
2018-10-06T18:10:24.206Z,18.73
2018-10-06T18:13:27.469Z,18.71
2018-10-06T18:16:30.802Z,18.74
2018-10-06T18:19:34.656Z,18.63
2018-10-06T18:22:38.245Z,18.66
2018-10-06T18:25:41.679Z,18.71
2018-10-06T18:28:44.881Z,18.60
2018-10-06T18:31:49.004Z,18.64
2018-10-06T18:34:52.277Z,18.56
2018-10-06T18:37:55.247Z,18.49
2018-10-06T18:40:59.036Z,18.58
2018-10-06T18:44:02.133Z,18.64
2018-10-06T18:47:05.562Z,18.61
2018-10-06T18:50:08.530Z,18.76
2018-10-06T18:53:11.894Z,18.68
2018-10-06T18:56:15.749Z,18.77
2018-10-06T18:59:19.395Z,18.63
2018-10-06T19:02:23.319Z,18.63
2018-10-06T19:05:26.378Z,18.67
2018-10-06T19:08:29.569Z,18.57
2018-10-06T19:11:32.609Z,18.60
2018-10-06T19:14:35.959Z,18.74
2018-10-06T19:17:39.064Z,18.69
2018-10-06T19:20:43.814Z,18.89
2018-10-06T19:23:47.740Z,18.73
2018-10-06T19:26:51.202Z,18.74
2018-10-06T19:29:54.549Z,18.77
2018-10-06T19:32:57.505Z,18.77
2018-10-06T19:36:00.927Z,18.84
2018-10-06T19:39:06.137Z,18.87
2018-10-06T19:42:09.368Z,18.87
2018-10-06T19:45:12.532Z,18.94
2018-10-06T19:48:15.950Z,18.99
2018-10-06T19:51:19.225Z,19.03
2018-10-06T19:54:22.797Z,18.88
2018-10-06T19:57:26.197Z,18.84
2018-10-06T20:00:29.450Z,18.98
2018-10-06T20:03:32.738Z,18.84
2018-10-06T20:06:36.313Z,18.83
2018-10-06T20:09:39.222Z,18.77
2018-10-06T20:12:42.516Z,18.84
2018-10-06T20:15:45.921Z,18.79
2018-10-06T20:18:49.724Z,18.74
2018-10-06T20:21:52.756Z,18.65
2018-10-06T20:24:56.313Z,18.55
2018-10-06T20:28:00.892Z,18.51
2018-10-06T20:31:04.704Z,18.44
2018-10-06T20:34:08.698Z,18.41
2018-10-06T20:37:11.773Z,18.37
2018-10-06T20:40:15.579Z,18.43
2018-10-06T20:43:19.795Z,18.48
2018-10-06T20:46:23.643Z,18.32
2018-10-06T20:49:26.926Z,18.40
2018-10-06T20:52:30.344Z,18.49
2018-10-06T20:55:33.561Z,18.45
2018-10-06T20:58:36.540Z,18.40
2018-10-06T21:01:39.864Z,18.42
2018-10-06T21:04:42.959Z,18.52
2018-10-06T21:07:45.958Z,18.59
2018-10-06T21:10:49.072Z,18.73
2018-10-06T21:13:52.020Z,18.65
2018-10-06T21:16:54.978Z,18.65
2018-10-06T21:19:57.985Z,18.62
2018-10-06T21:23:00.890Z,18.80
2018-10-06T21:26:04.119Z,18.69
2018-10-06T21:29:07.169Z,18.67
2018-10-06T21:32:10.218Z,18.41
2018-10-06T21:35:13.117Z,18.38
2018-10-06T21:38:16.039Z,18.04
2018-10-06T21:41:18.978Z,17.99
2018-10-06T21:44:21.889Z,17.96
2018-10-06T21:47:24.824Z,18.03
2018-10-06T21:50:27.764Z,17.93
2018-10-06T21:53:30.701Z,17.90
2018-10-06T21:56:33.665Z,17.81
2018-10-06T21:59:36.596Z,17.81
2018-10-06T22:02:39.839Z,17.66
2018-10-06T22:05:42.786Z,17.74
2018-10-06T22:08:50.258Z,17.62
2018-10-06T22:11:53.474Z,17.71
2018-10-06T22:14:56.488Z,17.61
2018-10-06T22:17:59.395Z,17.88
2018-10-06T22:21:02.269Z,17.80
2018-10-06T22:24:05.195Z,17.99
2018-10-06T22:27:08.149Z,18.01
2018-10-06T22:30:11.128Z,17.92
2018-10-06T22:33:14.120Z,17.80
2018-10-06T22:36:17.041Z,17.64
2018-10-06T22:39:20.012Z,17.70
2018-10-06T22:42:22.925Z,17.58
2018-10-06T22:45:25.864Z,17.49
2018-10-06T22:48:28.766Z,17.41
2018-10-06T22:51:31.689Z,17.31
2018-10-06T22:54:34.665Z,17.09
2018-10-06T22:57:37.565Z,17.24
2018-10-06T23:00:40.498Z,17.27
2018-10-06T23:03:43.417Z,17.18
2018-10-06T23:06:46.481Z,17.23
2018-10-06T23:09:49.437Z,16.99
2018-10-06T23:12:52.354Z,17.01
2018-10-06T23:15:55.285Z,16.80
2018-10-06T23:18:58.213Z,16.93
2018-10-06T23:22:01.212Z,16.66
2018-10-06T23:25:04.150Z,16.61
2018-10-06T23:28:07.069Z,16.65
2018-10-06T23:31:10.006Z,16.73
2018-10-06T23:34:12.930Z,16.67
2018-10-06T23:37:15.889Z,17.04
2018-10-06T23:40:18.842Z,16.68
2018-10-06T23:43:21.766Z,16.70
2018-10-06T23:46:24.745Z,16.69
2018-10-06T23:49:27.669Z,16.80
2018-10-06T23:52:30.604Z,16.68
2018-10-06T23:55:33.473Z,16.68
2018-10-06T23:58:36.435Z,16.80
